User Login    
 + Register
PDQ Cleaning

Forecast for your location

Detailed conditions for your location

Current US satellite images

Current US radar image

Current US warnings and watches

Various US weather maps

The raw METAR code for this location is KSFO 282156Z 27018G24KT 10SM FEW008 SCT014 BKN200 16/10 A3003 RMK AO2 PK WND 27027/2136 SLP168 T01610100

Decoded METAR for this location (may not be available)

Listen to KTTN-FM